sensor_id;sensor_type;location;lat;lon;timestamp;pressure;altitude;pressure_sealevel;temperature;humidity
54453;BME280;40363;52.270;10.546;2023-04-06T00:02:26;78201.78;;;-147.06;66.85
54453;BME280;40363;52.270;10.546;2023-04-06T00:04:53;78203.84;;;-147.06;66.21
54453;BME280;40363;52.270;10.546;2023-04-06T00:07:21;78189.44;;;-147.06;65.58
54453;BME280;40363;52.270;10.546;2023-04-06T00:09:47;78175.06;;;-147.06;65.40
54453;BME280;40363;52.270;10.546;2023-04-06T00:12:14;78170.94;;;-147.06;66.04
54453;BME280;40363;52.270;10.546;2023-04-06T00:14:40;78166.81;;;-147.06;66.72
54453;BME280;40363;52.270;10.546;2023-04-06T00:17:07;78175.06;;;-147.06;66.05
54453;BME280;40363;52.270;10.546;2023-04-06T00:19:34;78170.94;;;-147.06;65.69
54453;BME280;40363;52.270;10.546;2023-04-06T00:22:01;78177.09;;;-147.06;66.37
54453;BME280;40363;52.270;10.546;2023-04-06T00:24:29;78175.06;;;-147.06;66.71
54453;BME280;40363;52.270;10.546;2023-04-06T00:26:55;78195.63;;;-147.06;66.53
54453;BME280;40363;52.270;10.546;2023-04-06T00:29:22;78199.72;;;-147.06;66.41
54453;BME280;40363;52.270;10.546;2023-04-06T00:31:49;78195.63;;;-147.06;66.62
54453;BME280;40363;52.270;10.546;2023-04-06T00:34:15;78199.72;;;-147.06;67.09
54453;BME280;40363;52.270;10.546;2023-04-06T00:36:42;78220.28;;;-147.06;67.60
54453;BME280;40363;52.270;10.546;2023-04-06T00:39:09;78216.19;;;-147.06;67.56
54453;BME280;40363;52.270;10.546;2023-04-06T00:41:38;78203.84;;;-147.06;66.60
54453;BME280;40363;52.270;10.546;2023-04-06T00:44:05;78220.28;;;-147.06;67.35
54453;BME280;40363;52.270;10.546;2023-04-06T00:46:32;78216.19;;;-147.06;67.09
54453;BME280;40363;52.270;10.546;2023-04-06T00:48:59;78214.13;;;-147.06;66.71
54453;BME280;40363;52.270;10.546;2023-04-06T00:51:25;78220.28;;;-147.06;66.67
54453;BME280;40363;52.270;10.546;2023-04-06T00:53:52;78210.00;;;-147.06;66.60
54453;BME280;40363;52.270;10.546;2023-04-06T00:56:19;78193.56;;;-147.06;66.39
54453;BME280;40363;52.270;10.546;2023-04-06T00:58:47;78189.44;;;-147.06;66.11
54453;BME280;40363;52.270;10.546;2023-04-06T01:01:14;78191.50;;;-147.06;66.46
54453;BME280;40363;52.270;10.546;2023-04-06T01:03:41;78189.44;;;-147.06;66.28
54453;BME280;40363;52.270;10.546;2023-04-06T01:06:09;78193.56;;;-147.06;66.00
54453;BME280;40363;52.270;10.546;2023-04-06T01:08:36;78197.69;;;-147.06;66.51
54453;BME280;40363;52.270;10.546;2023-04-06T01:11:03;78191.50;;;-147.06;66.26
54453;BME280;40363;52.270;10.546;2023-04-06T01:13:29;78201.78;;;-147.06;66.43
54453;BME280;40363;52.270;10.546;2023-04-06T01:15:57;78207.94;;;-147.06;66.77
54453;BME280;40363;52.270;10.546;2023-04-06T01:18:26;78207.94;;;-147.06;66.66
54453;BME280;40363;52.270;10.546;2023-04-06T01:20:52;78203.84;;;-147.06;66.64
54453;BME280;40363;52.270;10.546;2023-04-06T01:23:20;78205.91;;;-147.06;66.98
54453;BME280;40363;52.270;10.546;2023-04-06T01:25:47;78222.34;;;-147.06;67.34
54453;BME280;40363;52.270;10.546;2023-04-06T01:28:14;78220.28;;;-147.06;67.35
54453;BME280;40363;52.270;10.546;2023-04-06T01:30:40;78214.13;;;-147.06;67.10
54453;BME280;40363;52.270;10.546;2023-04-06T01:33:07;78222.34;;;-147.06;67.13
54453;BME280;40363;52.270;10.546;2023-04-06T01:35:34;78218.22;;;-147.06;66.92
54453;BME280;40363;52.270;10.546;2023-04-06T01:38:01;78216.19;;;-147.06;66.56
54453;BME280;40363;52.270;10.546;2023-04-06T01:40:29;78220.28;;;-147.06;67.25
54453;BME280;40363;52.270;10.546;2023-04-06T01:42:56;78216.19;;;-147.06;65.74
54453;BME280;40363;52.270;10.546;2023-04-06T01:45:23;78210.00;;;-147.06;65.82
54453;BME280;40363;52.270;10.546;2023-04-06T01:47:49;78216.19;;;-147.06;65.63
54453;BME280;40363;52.270;10.546;2023-04-06T01:50:16;78214.13;;;-147.06;65.65
54453;BME280;40363;52.270;10.546;2023-04-06T01:52:43;78224.41;;;-147.06;65.71
54453;BME280;40363;52.270;10.546;2023-04-06T01:55:09;78218.22;;;-147.06;65.23
54453;BME280;40363;52.270;10.546;2023-04-06T01:57:37;78207.94;;;-147.06;65.25
54453;BME280;40363;52.270;10.546;2023-04-06T02:00:05;78214.13;;;-147.06;65.20
54453;BME280;40363;52.270;10.546;2023-04-06T02:02:32;78214.13;;;-147.06;65.04
54453;BME280;40363;52.270;10.546;2023-04-06T02:04:59;78224.41;;;-147.06;65.48
54453;BME280;40363;52.270;10.546;2023-04-06T02:07:25;78201.78;;;-147.06;65.61
54453;BME280;40363;52.270;10.546;2023-04-06T02:09:54;78207.94;;;-147.06;65.17
54453;BME280;40363;52.270;10.546;2023-04-06T02:12:21;78216.19;;;-147.06;65.20
54453;BME280;40363;52.270;10.546;2023-04-06T02:14:50;78203.84;;;-147.06;65.04
54453;BME280;40363;52.270;10.546;2023-04-06T02:17:17;78210.00;;;-147.06;64.85
54453;BME280;40363;52.270;10.546;2023-04-06T02:19:43;78197.69;;;-147.06;64.69
54453;BME280;40363;52.270;10.546;2023-04-06T02:22:10;78197.69;;;-147.06;65.34
54453;BME280;40363;52.270;10.546;2023-04-06T02:24:37;78203.84;;;-147.06;65.43
54453;BME280;40363;52.270;10.546;2023-04-06T02:27:04;78212.06;;;-147.06;65.71
54453;BME280;40363;52.270;10.546;2023-04-06T02:29:31;78228.53;;;-147.06;66.70
54453;BME280;40363;52.270;10.546;2023-04-06T02:31:59;78244.97;;;-147.06;67.36
54453;BME280;40363;52.270;10.546;2023-04-06T02:34:25;78253.19;;;-147.06;67.18
54453;BME280;40363;52.270;10.546;2023-04-06T02:36:52;78249.09;;;-147.06;66.93
54453;BME280;40363;52.270;10.546;2023-04-06T02:39:19;78244.97;;;-147.06;66.07
54453;BME280;40363;52.270;10.546;2023-04-06T02:41:45;78236.75;;;-147.06;65.65
54453;BME280;40363;52.270;10.546;2023-04-06T02:44:12;78232.63;;;-147.06;65.48
54453;BME280;40363;52.270;10.546;2023-04-06T02:46:39;78249.09;;;-147.06;67.60
54453;BME280;40363;52.270;10.546;2023-04-06T02:49:07;78249.09;;;-147.06;66.98
54453;BME280;40363;52.270;10.546;2023-04-06T02:51:33;78253.19;;;-147.06;67.63
54453;BME280;40363;52.270;10.546;2023-04-06T02:54:00;78257.31;;;-147.06;67.08
54453;BME280;40363;52.270;10.546;2023-04-06T02:56:26;78253.19;;;-147.06;66.66
54453;BME280;40363;52.270;10.546;2023-04-06T02:58:53;78253.19;;;-147.06;67.78
54453;BME280;40363;52.270;10.546;2023-04-06T03:01:20;78277.88;;;-147.06;67.26
54453;BME280;40363;52.270;10.546;2023-04-06T03:03:46;78267.59;;;-147.06;68.88
54453;BME280;40363;52.270;10.546;2023-04-06T03:06:14;78253.19;;;-147.06;66.68
54453;BME280;40363;52.270;10.546;2023-04-06T03:08:41;78267.59;;;-147.06;66.70
54453;BME280;40363;52.270;10.546;2023-04-06T03:11:08;78279.94;;;-147.06;67.66
54453;BME280;40363;52.270;10.546;2023-04-06T03:13:36;78284.03;;;-147.06;69.28
54453;BME280;40363;52.270;10.546;2023-04-06T03:16:04;78279.94;;;-147.06;68.32
54453;BME280;40363;52.270;10.546;2023-04-06T03:18:31;78275.81;;;-147.06;67.88
54453;BME280;40363;52.270;10.546;2023-04-06T03:20:58;78269.63;;;-147.06;67.21
54453;BME280;40363;52.270;10.546;2023-04-06T03:23:27;78279.94;;;-147.06;69.52
54453;BME280;40363;52.270;10.546;2023-04-06T03:25:53;78286.09;;;-147.06;69.93
54453;BME280;40363;52.270;10.546;2023-04-06T03:28:20;78310.78;;;-147.06;72.49
54453;BME280;40363;52.270;10.546;2023-04-06T03:30:46;78312.81;;;-147.06;73.55
54453;BME280;40363;52.270;10.546;2023-04-06T03:33:13;78323.09;;;-147.06;74.89
54453;BME280;40363;52.270;10.546;2023-04-06T03:35:40;78343.66;;;-147.06;75.80
54453;BME280;40363;52.270;10.546;2023-04-06T03:38:06;78356.00;;;-147.06;76.83
54453;BME280;40363;52.270;10.546;2023-04-06T03:40:34;78358.06;;;-147.06;76.59
54453;BME280;40363;52.270;10.546;2023-04-06T03:43:01;78380.69;;;-147.06;76.93
54453;BME280;40363;52.270;10.546;2023-04-06T03:45:27;78378.63;;;-147.06;77.39
54453;BME280;40363;52.270;10.546;2023-04-06T03:47:54;78386.84;;;-147.06;77.40
54453;BME280;40363;52.270;10.546;2023-04-06T03:50:21;78390.97;;;-147.06;77.84
54453;BME280;40363;52.270;10.546;2023-04-06T03:52:47;78393.03;;;-147.06;77.75
54453;BME280;40363;52.270;10.546;2023-04-06T03:55:14;78399.19;;;-147.06;76.19
54453;BME280;40363;52.270;10.546;2023-04-06T03:57:42;78393.03;;;-147.06;75.86
54453;BME280;40363;52.270;10.546;2023-04-06T04:00:10;78386.84;;;-147.06;74.93
54453;BME280;40363;52.270;10.546;2023-04-06T04:02:37;78384.78;;;-147.06;76.73
54453;BME280;40363;52.270;10.546;2023-04-06T04:05:04;78395.06;;;-147.06;77.70
54453;BME280;40363;52.270;10.546;2023-04-06T04:07:31;78401.25;;;-147.06;78.33
54453;BME280;40363;52.270;10.546;2023-04-06T04:09:58;78411.53;;;-147.06;79.74
54453;BME280;40363;52.270;10.546;2023-04-06T04:12:24;78409.47;;;-147.06;80.53
54453;BME280;40363;52.270;10.546;2023-04-06T04:14:52;78411.53;;;-147.06;81.25
54453;BME280;40363;52.270;10.546;2023-04-06T04:17:19;78430.03;;;-147.06;81.23
54453;BME280;40363;52.270;10.546;2023-04-06T04:19:46;78432.09;;;-147.06;81.35
54453;BME280;40363;52.270;10.546;2023-04-06T04:22:13;78438.25;;;-147.06;80.35
54453;BME280;40363;52.270;10.546;2023-04-06T04:24:39;78430.03;;;-147.06;79.87
54453;BME280;40363;52.270;10.546;2023-04-06T04:27:06;78434.16;;;-147.06;80.35
54453;BME280;40363;52.270;10.546;2023-04-06T04:29:32;78442.38;;;-147.06;79.99
54453;BME280;40363;52.270;10.546;2023-04-06T04:32:00;78444.44;;;-147.06;80.46
54453;BME280;40363;52.270;10.546;2023-04-06T04:34:28;78450.59;;;-147.06;80.12
54453;BME280;40363;52.270;10.546;2023-04-06T04:36:54;78448.53;;;-147.06;80.61
54453;BME280;40363;52.270;10.546;2023-04-06T04:39:21;78454.72;;;-147.06;79.26
54453;BME280;40363;52.270;10.546;2023-04-06T04:41:48;78450.59;;;-147.06;78.27
54453;BME280;40363;52.270;10.546;2023-04-06T04:44:14;78446.50;;;-147.06;76.94
54453;BME280;40363;52.270;10.546;2023-04-06T04:46:41;78438.25;;;-147.06;77.08
54453;BME280;40363;52.270;10.546;2023-04-06T04:49:09;78430.03;;;-147.06;76.98
54453;BME280;40363;52.270;10.546;2023-04-06T04:51:36;78442.38;;;-147.06;76.87
54453;BME280;40363;52.270;10.546;2023-04-06T04:54:02;78427.97;;;-147.06;76.45
54453;BME280;40363;52.270;10.546;2023-04-06T04:56:29;78421.81;;;-147.06;75.27
54453;BME280;40363;52.270;10.546;2023-04-06T04:58:56;78386.84;;;-147.06;73.90
54453;BME280;40363;52.270;10.546;2023-04-06T05:01:22;78393.03;;;-147.06;73.99
54453;BME280;40363;52.270;10.546;2023-04-06T05:03:49;78384.78;;;-147.06;74.80
54453;BME280;40363;52.270;10.546;2023-04-06T05:06:17;78380.69;;;-147.06;73.45
54453;BME280;40363;52.270;10.546;2023-04-06T05:08:45;78386.84;;;-147.06;74.40
54453;BME280;40363;52.270;10.546;2023-04-06T05:11:12;78347.78;;;-147.06;73.74
54453;BME280;40363;52.270;10.546;2023-04-06T05:13:38;78347.78;;;-147.06;73.12
54453;BME280;40363;52.270;10.546;2023-04-06T05:16:06;78331.34;;;-147.06;74.73
54453;BME280;40363;52.270;10.546;2023-04-06T05:18:32;78331.34;;;-147.06;74.34
54453;BME280;40363;52.270;10.546;2023-04-06T05:20:59;78325.16;;;-147.06;73.88
54453;BME280;40363;52.270;10.546;2023-04-06T05:23:27;78327.22;;;-147.06;74.53
54453;BME280;40363;52.270;10.546;2023-04-06T05:25:54;78329.28;;;-147.06;74.08
54453;BME280;40363;52.270;10.546;2023-04-06T05:28:20;78319.00;;;-147.06;73.87
54453;BME280;40363;52.270;10.546;2023-04-06T05:30:47;78310.78;;;-147.06;74.27
54453;BME280;40363;52.270;10.546;2023-04-06T05:33:14;78306.66;;;-147.06;74.16
54453;BME280;40363;52.270;10.546;2023-04-06T05:35:40;78319.00;;;-147.06;74.32
54453;BME280;40363;52.270;10.546;2023-04-06T05:38:08;78310.78;;;-147.06;74.07
54453;BME280;40363;52.270;10.546;2023-04-06T05:40:37;78290.22;;;-147.06;74.63
54453;BME280;40363;52.270;10.546;2023-04-06T05:43:06;78277.88;;;-147.06;73.92
54453;BME280;40363;52.270;10.546;2023-04-06T05:45:33;78279.94;;;-147.06;73.34
54453;BME280;40363;52.270;10.546;2023-04-06T05:48:00;78275.81;;;-147.06;72.45
54453;BME280;40363;52.270;10.546;2023-04-06T05:50:27;78259.34;;;-147.06;74.19
54453;BME280;40363;52.270;10.546;2023-04-06T05:52:53;78247.03;;;-147.06;74.46
54453;BME280;40363;52.270;10.546;2023-04-06T05:55:20;78232.63;;;-147.06;73.39
54453;BME280;40363;52.270;10.546;2023-04-06T05:57:48;78216.19;;;-147.06;72.99
54453;BME280;40363;52.270;10.546;2023-04-06T06:00:15;78205.91;;;-147.06;74.14
54453;BME280;40363;52.270;10.546;2023-04-06T06:02:42;78183.28;;;-147.06;73.27
54453;BME280;40363;52.270;10.546;2023-04-06T06:05:08;78170.94;;;-147.06;73.54
54453;BME280;40363;52.270;10.546;2023-04-06T06:07:35;78133.94;;;-147.06;72.01
54453;BME280;40363;52.270;10.546;2023-04-06T06:10:02;78115.44;;;-147.06;70.64
54453;BME280;40363;52.270;10.546;2023-04-06T06:12:29;78080.47;;;-147.06;69.12
54453;BME280;40363;52.270;10.546;2023-04-06T06:14:57;78053.75;;;-147.06;68.71
54453;BME280;40363;52.270;10.546;2023-04-06T06:17:24;78031.13;;;-147.06;67.46
54453;BME280;40363;52.270;10.546;2023-04-06T06:19:51;77990.00;;;-147.06;65.17
54453;BME280;40363;52.270;10.546;2023-04-06T06:22:17;77969.44;;;-147.06;64.03
54453;BME280;40363;52.270;10.546;2023-04-06T06:24:44;77870.75;;;-147.06;62.16
54453;BME280;40363;52.270;10.546;2023-04-06T06:27:11;77817.28;;;-147.06;60.68
54453;BME280;40363;52.270;10.546;2023-04-06T06:29:38;77755.59;;;-147.06;59.58
54453;BME280;40363;52.270;10.546;2023-04-06T06:32:06;77642.53;;;-147.06;56.35
54453;BME280;40363;52.270;10.546;2023-04-06T06:34:34;77667.19;;;-147.06;56.32
54453;BME280;40363;52.270;10.546;2023-04-06T06:37:01;77646.63;;;-147.06;52.47
54453;BME280;40363;52.270;10.546;2023-04-06T06:39:28;77607.56;;;-147.06;53.40
54453;BME280;40363;52.270;10.546;2023-04-06T06:41:55;77591.13;;;-147.06;51.19
54453;BME280;40363;52.270;10.546;2023-04-06T06:44:21;77582.91;;;-147.06;50.19
54453;BME280;40363;52.270;10.546;2023-04-06T06:46:48;77554.13;;;-147.06;48.88
54453;BME280;40363;52.270;10.546;2023-04-06T06:49:16;77584.97;;;-147.06;48.16
54453;BME280;40363;52.270;10.546;2023-04-06T06:51:43;77521.22;;;-147.06;47.89
54453;BME280;40363;52.270;10.546;2023-04-06T06:54:11;77492.44;;;-147.06;46.15
54453;BME280;40363;52.270;10.546;2023-04-06T06:56:37;77480.09;;;-147.06;46.22
54453;BME280;40363;52.270;10.546;2023-04-06T06:59:04;77541.78;;;-147.06;46.04
54453;BME280;40363;52.270;10.546;2023-04-06T07:01:32;77305.34;;;-147.06;43.58
54453;BME280;40363;52.270;10.546;2023-04-06T07:03:58;77422.53;;;-147.06;43.12
54453;BME280;40363;52.270;10.546;2023-04-06T07:06:27;77321.81;;;-147.06;42.41
54453;BME280;40363;52.270;10.546;2023-04-06T07:08:53;77334.13;;;-147.06;42.16
54453;BME280;40363;52.270;10.546;2023-04-06T07:11:20;77235.47;;;-147.06;41.62
54453;BME280;40363;52.270;10.546;2023-04-06T07:13:47;77130.63;;;-147.06;40.49
54453;BME280;40363;52.270;10.546;2023-04-06T07:16:14;77278.63;;;-147.06;41.38
54453;BME280;40363;52.270;10.546;2023-04-06T07:18:40;77130.63;;;-147.06;38.96
54453;BME280;40363;52.270;10.546;2023-04-06T07:21:07;77118.28;;;-147.06;39.14
54453;BME280;40363;52.270;10.546;2023-04-06T07:23:35;76962.06;;;-147.06;38.16
54453;BME280;40363;52.270;10.546;2023-04-06T07:26:01;77003.16;;;-147.06;38.11
54453;BME280;40363;52.270;10.546;2023-04-06T07:28:28;77044.28;;;-147.06;38.68
54453;BME280;40363;52.270;10.546;2023-04-06T07:30:55;76896.28;;;-147.06;37.34
54453;BME280;40363;52.270;10.546;2023-04-06T07:33:21;77227.25;;;-147.06;40.30
54453;BME280;40363;52.270;10.546;2023-04-06T07:35:48;77194.34;;;-147.06;40.05
54453;BME280;40363;52.270;10.546;2023-04-06T07:38:15;77208.75;;;-147.06;40.63
54453;BME280;40363;52.270;10.546;2023-04-06T07:40:43;76992.88;;;-147.06;38.56
54453;BME280;40363;52.270;10.546;2023-04-06T07:43:10;76931.22;;;-147.06;38.00
54453;BME280;40363;52.270;10.546;2023-04-06T07:45:37;76879.84;;;-147.06;37.38
54453;BME280;40363;52.270;10.546;2023-04-06T07:48:03;76832.56;;;-147.06;37.05
54453;BME280;40363;52.270;10.546;2023-04-06T07:50:30;77040.16;;;-147.06;38.96
54453;BME280;40363;52.270;10.546;2023-04-06T07:52:57;76933.28;;;-147.06;38.25
54453;BME280;40363;52.270;10.546;2023-04-06T07:55:24;76902.44;;;-147.06;38.15
54453;BME280;40363;52.270;10.546;2023-04-06T07:57:52;76756.50;;;-147.06;37.15
54453;BME280;40363;52.270;10.546;2023-04-06T08:00:19;76723.63;;;-147.06;36.14
54453;BME280;40363;52.270;10.546;2023-04-06T08:02:45;76822.28;;;-147.06;36.24
54453;BME280;40363;52.270;10.546;2023-04-06T08:05:12;76801.72;;;-147.06;36.32
54453;BME280;40363;52.270;10.546;2023-04-06T08:07:39;76731.84;;;-147.06;35.81
54453;BME280;40363;52.270;10.546;2023-04-06T08:10:07;76990.84;;;-147.06;37.01
54453;BME280;40363;52.270;10.546;2023-04-06T08:12:34;76898.34;;;-147.06;36.71
54453;BME280;40363;52.270;10.546;2023-04-06T08:15:03;77003.16;;;-147.06;37.46
54453;BME280;40363;52.270;10.546;2023-04-06T08:17:31;77060.72;;;-147.06;36.63
54453;BME280;40363;52.270;10.546;2023-04-06T08:19:59;77025.78;;;-147.06;36.75
54453;BME280;40363;52.270;10.546;2023-04-06T08:22:26;77058.66;;;-147.06;36.54
54453;BME280;40363;52.270;10.546;2023-04-06T08:24:52;76978.50;;;-147.06;36.18
54453;BME280;40363;52.270;10.546;2023-04-06T08:27:19;76900.38;;;-147.06;35.60
54453;BME280;40363;52.270;10.546;2023-04-06T08:29:46;76881.88;;;-147.06;35.53
54453;BME280;40363;52.270;10.546;2023-04-06T08:32:15;76947.66;;;-147.06;35.81
54453;BME280;40363;52.270;10.546;2023-04-06T08:34:41;76826.38;;;-147.06;35.60
54453;BME280;40363;52.270;10.546;2023-04-06T08:37:08;76883.94;;;-147.06;35.17
54453;BME280;40363;52.270;10.546;2023-04-06T08:39:35;76844.88;;;-147.06;34.98
54453;BME280;40363;52.270;10.546;2023-04-06T08:42:02;76703.06;;;-147.06;34.36
54453;BME280;40363;52.270;10.546;2023-04-06T08:44:29;76682.50;;;-147.06;33.67
54453;BME280;40363;52.270;10.546;2023-04-06T08:46:56;76600.28;;;-147.06;33.14
54453;BME280;40363;52.270;10.546;2023-04-06T08:49:24;76785.28;;;-147.06;33.48
54453;BME280;40363;52.270;10.546;2023-04-06T08:51:51;76643.44;;;-147.06;33.22
54453;BME280;40363;52.270;10.546;2023-04-06T08:54:18;76674.28;;;-147.06;33.37
54453;BME280;40363;52.270;10.546;2023-04-06T08:56:45;76717.44;;;-147.06;33.27
54453;BME280;40363;52.270;10.546;2023-04-06T08:59:13;76754.44;;;-147.06;33.28
54453;BME280;40363;52.270;10.546;2023-04-06T09:01:40;76824.34;;;-147.06;34.14
54453;BME280;40363;52.270;10.546;2023-04-06T09:04:09;76974.38;;;-147.06;35.55
54453;BME280;40363;52.270;10.546;2023-04-06T09:06:38;76746.22;;;-147.06;34.07
54453;BME280;40363;52.270;10.546;2023-04-06T09:09:05;76680.44;;;-147.06;33.51
54453;BME280;40363;52.270;10.546;2023-04-06T09:11:43;76937.38;;;-147.06;34.79
54453;BME280;40363;52.270;10.546;2023-04-06T09:14:10;76912.72;;;-147.06;35.12
54453;BME280;40363;52.270;10.546;2023-04-06T09:16:41;76980.56;;;-147.06;35.12
54453;BME280;40363;52.270;10.546;2023-04-06T09:19:08;76875.72;;;-147.06;34.66
54453;BME280;40363;52.270;10.546;2023-04-06T09:21:35;76890.13;;;-147.06;34.69
54453;BME280;40363;52.270;10.546;2023-04-06T09:24:04;76855.16;;;-147.06;34.21
54453;BME280;40363;52.270;10.546;2023-04-06T09:26:31;76886.00;;;-147.06;33.82
54453;BME280;40363;52.270;10.546;2023-04-06T09:28:59;76951.78;;;-147.06;33.91
54453;BME280;40363;52.270;10.546;2023-04-06T09:31:27;76807.88;;;-147.06;34.22
54453;BME280;40363;52.270;10.546;2023-04-06T09:33:54;76869.56;;;-147.06;34.69
54453;BME280;40363;52.270;10.546;2023-04-06T09:36:29;76859.28;;;-147.06;34.97
54453;BME280;40363;52.270;10.546;2023-04-06T09:38:58;76842.84;;;-147.06;34.41
54453;BME280;40363;52.270;10.546;2023-04-06T09:41:27;76877.78;;;-147.06;35.09
54453;BME280;40363;52.270;10.546;2023-04-06T09:44:02;76789.38;;;-147.06;34.29
54453;BME280;40363;52.270;10.546;2023-04-06T09:46:32;76620.84;;;-147.06;33.08
54453;BME280;40363;52.270;10.546;2023-04-06T09:49:00;76608.50;;;-147.06;33.43
54453;BME280;40363;52.270;10.546;2023-04-06T09:51:30;76598.22;;;-147.06;33.13
54453;BME280;40363;52.270;10.546;2023-04-06T09:53:57;76583.84;;;-147.06;32.97
54453;BME280;40363;52.270;10.546;2023-04-06T09:56:31;76466.69;;;-147.06;31.03
54453;BME280;40363;52.270;10.546;2023-04-06T09:59:02;76668.13;;;-147.06;32.39
54453;BME280;40363;52.270;10.546;2023-04-06T10:01:33;76723.63;;;-147.06;32.81
54453;BME280;40363;52.270;10.546;2023-04-06T10:04:11;76701.00;;;-147.06;33.59
54453;BME280;40363;52.270;10.546;2023-04-06T10:06:40;76698.94;;;-147.06;33.59
54453;BME280;40363;52.270;10.546;2023-04-06T10:09:07;76717.44;;;-147.06;33.87
54453;BME280;40363;52.270;10.546;2023-04-06T10:11:36;76594.13;;;-147.06;33.40
54453;BME280;40363;52.270;10.546;2023-04-06T10:14:03;76758.56;;;-147.06;33.88
54453;BME280;40363;52.270;10.546;2023-04-06T10:16:30;76740.06;;;-147.06;33.90
54453;BME280;40363;52.270;10.546;2023-04-06T10:19:02;76509.84;;;-147.06;32.93
54453;BME280;40363;52.270;10.546;2023-04-06T10:21:32;76470.78;;;-147.06;32.36
54453;BME280;40363;52.270;10.546;2023-04-06T10:24:01;76729.78;;;-147.06;33.94
54453;BME280;40363;52.270;10.546;2023-04-06T10:26:29;76627.00;;;-147.06;33.16
54453;BME280;40363;52.270;10.546;2023-04-06T10:29:02;76622.91;;;-147.06;32.81
54453;BME280;40363;52.270;10.546;2023-04-06T10:31:29;76604.41;;;-147.06;33.14
54453;BME280;40363;52.270;10.546;2023-04-06T10:33:56;76491.34;;;-147.06;31.95
54453;BME280;40363;52.270;10.546;2023-04-06T10:36:25;76472.84;;;-147.06;31.38
54453;BME280;40363;52.270;10.546;2023-04-06T10:38:57;76464.63;;;-147.06;31.40
54453;BME280;40363;52.270;10.546;2023-04-06T10:41:24;76509.84;;;-147.06;32.18
54453;BME280;40363;52.270;10.546;2023-04-06T10:43:59;76400.91;;;-147.06;31.54
54453;BME280;40363;52.270;10.546;2023-04-06T10:46:28;76370.09;;;-147.06;31.11
54453;BME280;40363;52.270;10.546;2023-04-06T10:48:55;76657.84;;;-147.06;32.56
54453;BME280;40363;52.270;10.546;2023-04-06T10:51:25;76731.84;;;-147.06;33.65
54453;BME280;40363;52.270;10.546;2023-04-06T10:53:54;76805.84;;;-147.06;34.08
54453;BME280;40363;52.270;10.546;2023-04-06T10:56:22;76666.06;;;-147.06;33.94
54453;BME280;40363;52.270;10.546;2023-04-06T10:58:52;76631.13;;;-147.06;33.16
54453;BME280;40363;52.270;10.546;2023-04-06T11:01:23;76713.34;;;-147.06;33.66
54453;BME280;40363;52.270;10.546;2023-04-06T11:03:54;76797.63;;;-147.06;34.08
54453;BME280;40363;52.270;10.546;2023-04-06T11:06:25;76672.22;;;-147.06;34.03
54453;BME280;40363;52.270;10.546;2023-04-06T11:08:53;76674.28;;;-147.06;34.14
54453;BME280;40363;52.270;10.546;2023-04-06T11:11:21;76766.78;;;-147.06;34.39
54453;BME280;40363;52.270;10.546;2023-04-06T11:13:50;76787.34;;;-147.06;34.87
54453;BME280;40363;52.270;10.546;2023-04-06T11:16:18;76735.94;;;-147.06;33.79
54453;BME280;40363;52.270;10.546;2023-04-06T11:18:51;76674.28;;;-147.06;33.46
54453;BME280;40363;52.270;10.546;2023-04-06T11:21:18;76762.66;;;-147.06;34.07
54453;BME280;40363;52.270;10.546;2023-04-06T11:23:45;76809.94;;;-147.06;34.20
54453;BME280;40363;52.270;10.546;2023-04-06T11:26:12;76809.94;;;-147.06;35.01
54453;BME280;40363;52.270;10.546;2023-04-06T11:28:39;76756.50;;;-147.06;34.46
54453;BME280;40363;52.270;10.546;2023-04-06T11:31:07;76711.28;;;-147.06;33.63
54453;BME280;40363;52.270;10.546;2023-04-06T11:33:37;76657.84;;;-147.06;33.62
54453;BME280;40363;52.270;10.546;2023-04-06T11:36:06;76676.34;;;-147.06;34.00
54453;BME280;40363;52.270;10.546;2023-04-06T11:38:33;76682.50;;;-147.06;34.10
54453;BME280;40363;52.270;10.546;2023-04-06T11:41:01;76715.38;;;-147.06;33.43
54453;BME280;40363;52.270;10.546;2023-04-06T11:43:29;76844.88;;;-147.06;34.23
54453;BME280;40363;52.270;10.546;2023-04-06T11:46:00;76816.13;;;-147.06;34.66
54453;BME280;40363;52.270;10.546;2023-04-06T11:48:28;76756.50;;;-147.06;34.74
54453;BME280;40363;52.270;10.546;2023-04-06T11:50:56;76719.50;;;-147.06;34.50
54453;BME280;40363;52.270;10.546;2023-04-06T11:53:24;76715.38;;;-147.06;34.97
54453;BME280;40363;52.270;10.546;2023-04-06T11:55:51;76672.22;;;-147.06;33.79
54453;BME280;40363;52.270;10.546;2023-04-06T11:58:18;76657.84;;;-147.06;33.53
54453;BME280;40363;52.270;10.546;2023-04-06T12:00:45;76655.78;;;-147.06;33.63
54453;BME280;40363;52.270;10.546;2023-04-06T12:03:12;76719.50;;;-147.06;34.30
54453;BME280;40363;52.270;10.546;2023-04-06T12:05:38;76715.38;;;-147.06;34.13
54453;BME280;40363;52.270;10.546;2023-04-06T12:08:05;76859.28;;;-147.06;35.17
54453;BME280;40363;52.270;10.546;2023-04-06T12:10:33;76762.66;;;-147.06;34.72
54453;BME280;40363;52.270;10.546;2023-04-06T12:13:00;76740.06;;;-147.06;34.74
54453;BME280;40363;52.270;10.546;2023-04-06T12:15:26;76758.56;;;-147.06;34.10
54453;BME280;40363;52.270;10.546;2023-04-06T12:17:53;76733.88;;;-147.06;34.29
54453;BME280;40363;52.270;10.546;2023-04-06T12:20:20;76703.06;;;-147.06;34.21
54453;BME280;40363;52.270;10.546;2023-04-06T12:22:47;76678.41;;;-147.06;33.91
54453;BME280;40363;52.270;10.546;2023-04-06T12:25:13;76748.28;;;-147.06;33.66
54453;BME280;40363;52.270;10.546;2023-04-06T12:27:41;76719.50;;;-147.06;33.20
54453;BME280;40363;52.270;10.546;2023-04-06T12:30:08;76684.56;;;-147.06;32.77
54453;BME280;40363;52.270;10.546;2023-04-06T12:32:35;76670.16;;;-147.06;32.97